Time;durP1;ratioP1;P1;durP2;ratioP2;P2;SDS_P1;SDS_P2;PMS_P1;PMS_P2;Temp;Humidity;BMP_temperature;BMP_pressure;BME280_temperature;BME280_humidity;BME280_pressure;Samples;Min_cycle;Max_cycle;Signal;HPM_P1;HPM_P2
2022/02/06 00:00:51;;;;;;;;;8.50;3.75;;;;;9.52;62.49;101968.31;5018962;28;45733;-61
2022/02/06 00:03:17;;;;;;;;;7.50;3.50;;;;;9.49;62.07;101969.28;5019365;28;45310;-62
2022/02/06 00:05:44;;;;;;;;;6.00;3.00;;;;;9.49;62.26;101971.06;5020320;28;45472;-62
2022/02/06 00:08:11;;;;;;;;;5.00;1.25;;;;;9.49;62.25;101971.06;5020340;28;45301;-61
2022/02/06 00:10:37;;;;;;;;;5.00;2.25;;;;;9.49;62.24;101961.38;5024065;28;45487;-62
2022/02/06 00:13:03;;;;;;;;;5.50;3.25;;;;;9.51;61.79;101950.81;5018696;28;45421;-62
2022/02/06 00:15:29;;;;;;;;;2.50;2.00;;;;;9.54;62.15;101944.56;5020419;28;45451;-62
2022/02/06 00:17:54;;;;;;;;;6.50;2.75;;;;;9.57;62.07;101941.84;5020265;28;45719;-62
2022/02/06 00:20:21;;;;;;;;;6.25;3.00;;;;;9.57;61.88;101941.84;5019346;28;46200;-62
2022/02/06 00:22:52;;;;;;;;;8.75;2.50;;;;;9.59;61.72;101942.66;5019924;28;45334;-62
2022/02/06 00:33:39;;;;;;;;;3.50;2.75;;;;;9.67;61.71;101937.97;5020140;28;45365;-63
2022/02/06 00:41:22;;;;;;;;;5.50;2.00;;;;;9.68;62.20;101913.38;5019110;28;45998;-62
2022/02/06 00:43:49;;;;;;;;;5.50;2.25;;;;;9.66;61.76;101907.31;5019886;28;45357;-62
2022/02/06 00:46:17;;;;;;;;;3.25;2.50;;;;;9.67;61.89;101909.88;5019982;28;45399;-62
2022/02/06 00:48:49;;;;;;;;;4.50;3.00;;;;;9.66;61.61;101896.78;5018603;28;45532;-62
2022/02/06 00:51:27;;;;;;;;;1.25;1.25;;;;;9.68;62.07;101902.84;5019481;28;45194;-62
2022/02/06 00:53:52;;;;;;;;;2.50;2.00;;;;;9.67;62.47;101899.34;5019123;28;46598;-62
2022/02/06 00:56:18;;;;;;;;;4.00;2.75;;;;;9.69;61.70;101910.66;5019588;28;45236;-62
2022/02/06 00:58:43;;;;;;;;;7.25;3.00;;;;;9.70;62.10;101911.53;5020196;28;45425;-62
2022/02/06 01:01:09;;;;;;;;;3.25;3.00;;;;;9.74;61.97;101903.47;5019258;28;45921;-62
2022/02/06 01:03:34;;;;;;;;;3.00;1.00;;;;;9.77;62.19;101898.09;5019740;28;45400;-61
2022/02/06 01:06:00;;;;;;;;;2.50;2.00;;;;;9.79;62.13;101898.91;5019377;28;45234;-62
2022/02/06 01:08:26;;;;;;;;;2.75;2.00;;;;;9.81;61.82;101898.84;5019951;28;45332;-62
2022/02/06 01:10:53;;;;;;;;;2.75;1.00;;;;;9.81;61.93;101903.25;5022712;28;45400;-62
2022/02/06 01:16:20;;;;;;;;;1.75;1.00;;;;;9.81;61.85;101892.72;5003627;28;45479;-62
2022/02/06 01:18:54;;;;;;;;;2.00;2.00;;;;;9.82;61.41;101894.44;5003356;28;45442;-62
2022/02/06 01:21:33;;;;;;;;;2.50;1.00;;;;;9.77;61.70;101882.31;5022265;28;45502;-62
2022/02/06 01:24:05;;;;;;;;;6.50;1.50;;;;;9.76;61.68;101893.75;5006595;28;45234;-62
2022/02/06 01:29:14;;;;;;;;;2.50;2.00;;;;;9.78;62.09;101880.53;5003026;28;45688;-62
2022/02/06 01:32:01;;;;;;;;;3.00;2.00;;;;;9.78;61.52;101876.13;5002734;28;45372;-62
2022/02/06 01:34:38;;;;;;;;;3.50;2.50;;;;;9.78;61.91;101876.13;5003033;28;45387;-62
2022/02/06 01:37:19;;;;;;;;;1.25;1.25;;;;;9.79;62.08;101885.75;5002870;28;45305;-62
2022/02/06 01:42:37;;;;;;;;;1.00;1.00;;;;;9.79;61.97;101880.50;5002444;28;45234;-62
2022/02/06 02:04:27;;;;;;;;;2.25;2.00;;;;;9.88;61.30;101810.00;5016413;28;45400;-65
2022/02/06 02:12:19;;;;;;;;;1.00;1.00;;;;;9.97;61.34;101831.56;5008141;28;45343;-65
2022/02/06 02:48:24;;;;;;;;;2.75;1.00;;;;;9.97;62.24;101799.97;5001770;28;45312;-66
2022/02/06 02:50:56;;;;;;;;;2.00;1.00;;;;;9.98;61.95;101791.16;5001858;28;45318;-66
2022/02/06 02:56:39;;;;;;;;;2.25;1.75;;;;;9.98;61.97;101766.59;5001525;28;45500;-66
2022/02/06 02:59:13;;;;;;;;;1.50;1.00;;;;;10.01;62.10;101759.41;5009149;28;45502;-66
2022/02/06 03:01:48;;;;;;;;;4.00;1.00;;;;;10.02;62.08;101749.75;5021126;28;45398;-66
2022/02/06 03:04:14;;;;;;;;;2.00;1.75;;;;;10.03;62.50;101743.56;5021188;28;45329;-66
2022/02/06 03:06:39;;;;;;;;;3.25;2.00;;;;;10.01;62.39;101734.88;5021247;28;45738;-66
2022/02/06 03:09:05;;;;;;;;;2.00;1.00;;;;;9.99;62.80;101729.69;5021395;28;45356;-66
2022/02/06 03:11:31;;;;;;;;;1.00;1.00;;;;;9.97;63.01;101725.41;5015058;28;45229;-66
2022/02/06 03:16:34;;;;;;;;;2.00;2.00;;;;;9.99;62.81;101720.94;5020990;28;45497;-66
2022/02/06 03:21:29;;;;;;;;;3.50;2.00;;;;;9.92;63.00;101708.94;5020990;28;45311;-66
2022/02/06 03:23:59;;;;;;;;;1.75;1.75;;;;;9.93;63.38;101708.88;5021040;28;45320;-66
2022/02/06 03:26:26;;;;;;;;;2.00;1.00;;;;;9.96;63.38;101714.03;5021123;28;45434;-66
2022/02/06 03:28:55;;;;;;;;;2.75;2.00;;;;;9.95;63.59;101716.69;5021235;28;45341;-66
2022/02/06 03:31:21;;;;;;;;;6.00;1.75;;;;;9.95;63.13;101724.59;5020918;28;45208;-66
2022/02/06 03:33:50;;;;;;;;;1.25;1.00;;;;;9.97;63.57;101721.00;5021003;28;45486;-66
2022/02/06 03:36:16;;;;;;;;;2.25;1.00;;;;;9.95;63.49;101732.50;5020278;28;45257;-66
2022/02/06 03:38:41;;;;;;;;;2.00;2.00;;;;;9.95;63.71;101730.75;5020879;28;45336;-66
2022/02/06 03:41:10;;;;;;;;;3.75;1.00;;;;;9.93;63.81;101716.75;5004812;28;45254;-66
2022/02/06 03:43:48;;;;;;;;;2.00;2.00;;;;;9.96;64.07;101710.53;5001244;28;45457;-67
2022/02/06 03:46:20;;;;;;;;;3.25;2.00;;;;;9.94;64.15;101710.56;5000705;28;46191;-66
2022/02/06 03:51:20;;;;;;;;;1.25;1.00;;;;;9.94;64.44;101696.56;5000928;28;45548;-66
2022/02/06 03:53:48;;;;;;;;;2.75;1.00;;;;;9.94;64.27;101689.53;5000598;28;45234;-66
2022/02/06 03:56:14;;;;;;;;;2.00;1.25;;;;;9.94;64.20;101689.53;5000588;28;45628;-66
2022/02/06 03:58:40;;;;;;;;;2.00;2.00;;;;;9.93;64.39;101687.81;5000759;28;45553;-66
2022/02/06 04:01:05;;;;;;;;;1.00;1.00;;;;;9.94;64.55;101670.25;5000898;28;45399;-66
2022/02/06 04:03:31;;;;;;;;;2.75;2.75;;;;;9.93;64.62;101666.75;5000778;28;45579;-66
2022/02/06 04:05:57;;;;;;;;;2.00;1.25;;;;;9.91;64.84;101671.25;5000476;28;46398;-66
2022/02/06 04:08:23;;;;;;;;;2.00;2.00;;;;;9.91;65.13;101688.81;5000631;28;45387;-66
2022/02/06 04:10:51;;;;;;;;;1.50;1.00;;;;;9.92;65.24;101669.47;5000726;28;45388;-66
2022/02/06 04:13:23;;;;;;;;;1.50;1.50;;;;;9.93;64.97;101674.66;5019718;28;45378;-66
2022/02/06 04:15:57;;;;;;;;;2.00;2.00;;;;;9.95;64.70;101658.78;5020275;28;45400;-66
2022/02/06 04:18:35;;;;;;;;;0.00;0.00;;;;;9.93;65.24;101672.03;5020413;28;45402;-66
2022/02/06 04:21:01;;;;;;;;;2.00;1.00;;;;;9.94;65.24;101649.19;5020297;28;45281;-66
2022/02/06 04:23:27;;;;;;;;;0.75;0.75;;;;;9.92;65.04;101653.66;5020254;28;45385;-66
2022/02/06 04:25:52;;;;;;;;;1.50;1.25;;;;;9.91;64.92;101641.44;5020044;28;45444;-66
2022/02/06 04:28:18;;;;;;;;;2.75;1.50;;;;;9.91;65.15;101634.41;5020151;28;45162;-66
2022/02/06 04:30:43;;;;;;;;;1.75;1.00;;;;;9.91;65.36;101628.28;5020324;28;45348;-66
2022/02/06 04:33:09;;;;;;;;;2.75;1.25;;;;;9.94;65.38;101617.59;5020028;28;45314;-66
2022/02/06 04:35:38;;;;;;;;;3.50;1.50;;;;;9.95;65.41;101593.00;5020011;28;46254;-66
2022/02/06 04:38:30;;;;;;;;;5.75;2.50;;;;;9.95;65.55;101600.88;5019884;28;45500;-65
2022/02/06 04:54:23;;;;;;;;;3.00;3.00;;;;;9.86;65.88;101596.03;5003002;28;45357;-66
2022/02/06 05:11:09;;;;;;;;;2.00;2.00;;;;;9.85;65.87;101582.00;5004004;28;45364;-66
2022/02/06 05:26:47;;;;;;;;;1.75;1.75;;;;;9.78;66.54;101541.09;5023043;28;45278;-66
2022/02/06 05:28:51;;;;;;;;;2.00;2.00;;;;;9.79;66.85;101529.63;5022559;28;46113;-66
2022/02/06 05:31:37;;;;;;;;;4.00;2.00;;;;;9.78;66.62;101520.03;5022812;28;45233;-66
2022/02/06 05:34:03;;;;;;;;;1.00;1.00;;;;;9.77;66.72;101506.03;5022754;28;45213;-66
2022/02/06 05:36:28;;;;;;;;;1.25;1.25;;;;;9.76;66.71;101509.59;5023001;28;45325;-66
2022/02/06 05:38:54;;;;;;;;;2.00;1.00;;;;;9.75;66.86;101528.94;5022817;28;45364;-66
2022/02/06 05:41:19;;;;;;;;;6.00;1.25;;;;;9.76;66.89;101522.75;5004800;28;45468;-64
2022/02/06 05:43:45;;;;;;;;;3.00;1.75;;;;;9.77;66.93;101506.03;5003327;28;45281;-64
2022/02/06 05:46:10;;;;;;;;;2.00;2.00;;;;;9.78;66.76;101518.25;5002487;28;45487;-65
2022/02/06 05:48:36;;;;;;;;;2.00;2.00;;;;;9.81;66.98;101519.94;5002970;28;46191;-65
2022/02/06 05:51:01;;;;;;;;;3.50;2.00;;;;;9.82;66.95;101505.00;5002661;28;45332;-65
2022/02/06 05:53:27;;;;;;;;;1.75;1.00;;;;;9.82;67.42;101499.72;5002357;28;45407;-65
2022/02/06 05:55:52;;;;;;;;;6.00;1.75;;;;;9.83;66.89;101493.53;5002509;28;45380;-65
2022/02/06 05:58:18;;;;;;;;;4.00;1.25;;;;;9.83;67.41;101519.84;5002195;28;45373;-65
2022/02/06 06:00:43;;;;;;;;;1.00;1.00;;;;;9.83;66.69;101514.59;5000512;28;45388;-65
2022/02/06 06:03:09;;;;;;;;;2.00;1.25;;;;;9.82;66.82;101502.38;5002967;28;45348;-65
2022/02/06 06:05:35;;;;;;;;;1.25;1.25;;;;;9.83;66.86;101488.28;5002217;28;45469;-65
2022/02/06 06:08:01;;;;;;;;;2.50;2.00;;;;;9.82;67.32;101487.44;5002297;28;45463;-65
2022/02/06 06:10:27;;;;;;;;;3.00;2.00;;;;;9.83;67.20;101483.88;5002522;28;45288;-64
2022/02/06 06:12:53;;;;;;;;;2.25;1.00;;;;;9.80;67.16;101484.03;5009054;28;45242;-65
2022/02/06 06:15:18;;;;;;;;;3.25;2.00;;;;;9.79;67.19;101477.91;5002283;28;45542;-65
2022/02/06 06:17:45;;;;;;;;;1.50;0.00;;;;;9.81;67.18;101484.88;5002417;28;45979;-65
2022/02/06 06:20:14;;;;;;;;;1.00;1.00;;;;;9.81;67.66;101475.19;5002051;28;45384;-65
2022/02/06 06:22:41;;;;;;;;;2.75;1.00;;;;;9.83;67.45;101460.19;5002669;28;45461;-65
2022/02/06 06:25:07;;;;;;;;;6.00;1.75;;;;;9.83;67.76;101452.28;5002032;28;45551;-66
2022/02/06 06:27:33;;;;;;;;;1.75;1.75;;;;;9.85;67.44;101450.44;5002262;28;45502;-65
2022/02/06 06:29:59;;;;;;;;;5.00;1.25;;;;;9.83;67.88;101428.63;5001807;28;45270;-65
2022/02/06 06:32:24;;;;;;;;;2.00;1.00;;;;;9.83;67.59;101447.03;5002200;28;45432;-65
2022/02/06 06:34:51;;;;;;;;;2.00;2.00;;;;;9.84;67.66;101461.91;5001963;28;46099;-64
2022/02/06 06:37:18;;;;;;;;;0.00;0.00;;;;;9.85;67.36;101471.50;5001761;28;45372;-64
2022/02/06 06:39:47;;;;;;;;;3.00;1.75;;;;;9.87;67.88;101479.31;5017087;28;45541;-65
2022/02/06 06:42:14;;;;;;;;;1.75;1.00;;;;;9.86;67.34;101467.94;5001936;28;45397;-64
2022/02/06 06:44:41;;;;;;;;;2.00;1.25;;;;;9.88;68.11;101470.53;5002064;28;45621;-65
2022/02/06 06:47:08;;;;;;;;;5.50;2.50;;;;;9.88;68.22;101470.53;5001781;28;46329;-64
2022/02/06 06:49:34;;;;;;;;;3.00;1.00;;;;;9.88;68.15;101468.75;5001433;28;45364;-64
2022/02/06 06:52:00;;;;;;;;;1.75;1.25;;;;;9.90;67.80;101471.31;5001895;28;45360;-64
2022/02/06 06:54:34;;;;;;;;;6.25;2.25;;;;;9.91;67.90;101471.22;5001322;28;45251;-64
2022/02/06 06:57:38;;;;;;;;;1.00;1.00;;;;;9.93;68.28;101458.00;5007603;28;45362;-64
2022/02/06 07:02:27;;;;;;;;;3.50;2.00;;;;;9.97;67.89;101456.94;5001610;28;45372;-64
2022/02/06 07:05:03;;;;;;;;;2.25;1.00;;;;;9.98;68.11;101453.38;5001669;28;45497;-64
2022/02/06 07:07:29;;;;;;;;;1.50;1.00;;;;;9.99;68.18;101448.03;5001600;28;45584;-62
2022/02/06 07:09:55;;;;;;;;;1.00;1.00;;;;;10.01;68.46;101443.56;5012962;28;45312;-64
2022/02/06 07:12:20;;;;;;;;;4.00;1.75;;;;;10.05;67.76;101439.03;5010725;28;45415;-63
2022/02/06 07:14:48;;;;;;;;;2.00;2.00;;;;;10.05;68.15;101437.25;5004745;28;45507;-64
2022/02/06 07:17:14;;;;;;;;;1.00;1.00;;;;;10.06;68.42;101432.84;5008712;28;46171;-64
2022/02/06 07:19:42;;;;;;;;;2.00;1.75;;;;;10.06;68.00;101432.84;5007193;28;45451;-64
2022/02/06 07:22:10;;;;;;;;;1.75;1.75;;;;;10.06;68.34;101417.91;5007239;28;45392;-64
2022/02/06 07:24:37;;;;;;;;;1.00;1.00;;;;;10.10;68.03;101423.00;5012123;28;45415;-64
2022/02/06 07:27:05;;;;;;;;;2.75;2.00;;;;;10.14;67.95;101421.94;5010085;28;45938;-64
2022/02/06 07:29:32;;;;;;;;;0.00;0.00;;;;;10.16;68.17;101426.22;5012103;28;45523;-60
2022/02/06 07:32:00;;;;;;;;;0.00;0.00;;;;;10.19;67.80;101418.19;5010296;28;45470;-64
2022/02/06 07:34:26;;;;;;;;;2.00;0.75;;;;;10.22;68.38;101425.97;5011763;28;45353;-64
2022/02/06 07:36:51;;;;;;;;;3.00;1.00;;;;;10.22;68.71;101423.34;5010079;28;45520;-64
2022/02/06 07:39:16;;;;;;;;;3.00;1.00;;;;;10.22;68.71;101411.91;5011567;28;45173;-64
2022/02/06 07:41:42;;;;;;;;;1.25;1.25;;;;;10.20;68.78;101396.19;5007736;28;45480;-63
2022/02/06 07:44:08;;;;;;;;;1.25;1.00;;;;;10.16;69.14;101412.19;5009747;28;45715;-64
2022/02/06 07:46:45;;;;;;;;;1.25;1.00;;;;;10.14;69.68;101401.75;5004866;28;45460;-64
2022/02/06 07:49:11;;;;;;;;;1.00;0.00;;;;;10.11;69.29;101388.75;5010357;28;45423;-64
2022/02/06 07:51:37;;;;;;;;;0.00;0.00;;;;;10.11;69.61;101387.84;5009420;28;45459;-64
2022/02/06 07:54:03;;;;;;;;;6.75;1.00;;;;;10.12;69.46;101390.44;5014296;28;45555;-64
2022/02/06 07:56:29;;;;;;;;;2.00;2.00;;;;;10.12;68.85;101387.81;5007515;28;45447;-64
2022/02/06 07:58:55;;;;;;;;;2.00;1.75;;;;;10.11;68.87;101379.94;5009423;28;45517;-64
2022/02/06 08:01:21;;;;;;;;;0.50;0.50;;;;;10.12;68.86;101373.78;5010889;28;45624;-66
2022/02/06 08:03:47;;;;;;;;;0.50;0.50;;;;;10.15;68.62;101376.25;5011166;28;45296;-65
2022/02/06 08:06:13;;;;;;;;;1.75;1.50;;;;;10.12;69.13;101360.63;5008764;28;46409;-65
2022/02/06 08:08:38;;;;;;;;;2.25;1.00;;;;;10.13;68.68;101362.34;5012241;28;45341;-65
2022/02/06 08:11:06;;;;;;;;;2.50;2.00;;;;;10.14;68.74;101345.59;5009551;28;45427;-65
2022/02/06 08:13:43;;;;;;;;;1.00;1.00;;;;;10.17;68.51;101351.56;5012079;28;45589;-65
2022/02/06 08:16:09;;;;;;;;;1.00;1.00;;;;;10.18;68.63;101344.50;5011921;28;45561;-65
2022/02/06 08:18:38;;;;;;;;;2.00;1.50;;;;;10.19;68.92;101344.47;5009761;28;45511;-67
2022/02/06 08:21:04;;;;;;;;;1.00;0.00;;;;;10.19;69.01;101338.31;5008802;28;45438;-67
2022/02/06 08:23:30;;;;;;;;;2.00;0.00;;;;;10.20;69.22;101340.91;5010693;28;45244;-67
2022/02/06 08:25:57;;;;;;;;;2.00;0.00;;;;;10.22;68.92;101339.06;5013128;28;45357;-67
2022/02/06 08:28:22;;;;;;;;;1.25;1.00;;;;;10.23;69.21;101327.63;5016928;28;45332;-67
2022/02/06 08:30:48;;;;;;;;;2.00;1.00;;;;;10.21;69.21;101334.72;5013229;28;45368;-67
2022/02/06 08:33:14;;;;;;;;;6.00;1.00;;;;;10.20;70.19;101338.28;5012767;28;45448;-67
2022/02/06 08:35:40;;;;;;;;;1.00;1.00;;;;;10.19;70.10;101322.53;5010123;28;46213;-67
2022/02/06 08:38:05;;;;;;;;;1.25;0.75;;;;;10.20;70.31;101309.31;5014547;28;45471;-67
2022/02/06 08:40:31;;;;;;;;;1.00;1.00;;;;;10.22;70.18;101307.47;5014141;28;45542;-67
2022/02/06 08:42:57;;;;;;;;;6.25;5.00;;;;;10.25;70.28;101302.06;5011617;28;45696;-66
2022/02/06 08:45:25;;;;;;;;;5.00;1.00;;;;;10.26;69.95;101303.75;5013223;28;46296;-67
2022/02/06 08:47:51;;;;;;;;;1.00;1.00;;;;;10.28;70.05;101293.19;5014470;28;45499;-66
2022/02/06 08:50:17;;;;;;;;;0.75;0.75;;;;;10.25;70.16;101299.41;5013810;28;45415;-66
2022/02/06 08:52:43;;;;;;;;;0.00;0.00;;;;;10.24;70.76;101286.34;5013134;28;45514;-67
2022/02/06 08:55:11;;;;;;;;;3.25;1.00;;;;;10.25;70.75;101281.00;5009911;28;45920;-67
2022/02/06 08:57:44;;;;;;;;;4.00;1.00;;;;;10.25;70.81;101270.47;5011109;28;45319;-67
2022/02/06 09:00:10;;;;;;;;;1.75;0.00;;;;;10.27;70.83;101278.31;5011208;28;45353;-67
2022/02/06 09:02:35;;;;;;;;;4.75;0.00;;;;;10.29;70.97;101255.38;5012997;28;45531;-67
2022/02/06 09:05:02;;;;;;;;;2.00;0.00;;;;;10.29;71.22;101260.66;5012625;28;46324;-67
2022/02/06 09:07:28;;;;;;;;;2.75;1.50;;;;;10.30;71.50;101264.97;5014781;28;45332;-67
2022/02/06 09:09:59;;;;;;;;;0.00;0.00;;;;;10.34;70.90;101264.72;5013238;28;45350;-66
2022/02/06 09:12:26;;;;;;;;;3.00;1.00;;;;;10.38;70.88;101268.09;5010104;28;45491;-68
2022/02/06 09:14:52;;;;;;;;;2.00;1.00;;;;;10.38;71.16;101241.75;5009713;28;46639;-67
2022/02/06 09:17:17;;;;;;;;;0.00;0.00;;;;;10.38;71.15;101243.53;5012483;28;45347;-66
2022/02/06 09:19:43;;;;;;;;;1.00;1.00;;;;;10.38;71.62;101252.28;5011515;28;45408;-67
2022/02/06 09:22:10;;;;;;;;;1.50;1.00;;;;;10.42;71.71;101242.44;5011479;28;45690;-67
2022/02/06 09:24:39;;;;;;;;;1.25;1.25;;;;;10.42;71.56;101243.28;5013765;28;46321;-67
2022/02/06 09:27:06;;;;;;;;;2.00;2.00;;;;;10.43;71.76;101236.25;5007768;28;45414;-67
2022/02/06 09:29:32;;;;;;;;;7.00;1.00;;;;;10.42;71.75;101235.38;5012075;28;45407;-68
2022/02/06 09:37:00;;;;;;;;;0.25;0.25;;;;;10.41;71.86;101211.75;5010866;28;45235;-68
2022/02/06 09:39:25;;;;;;;;;0.75;0.00;;;;;10.45;72.00;101229.97;5011953;28;45252;-64
2022/02/06 09:41:52;;;;;;;;;0.00;0.00;;;;;10.46;72.16;101233.47;5011295;28;45486;-65
2022/02/06 09:44:22;;;;;;;;;2.00;1.00;;;;;10.46;72.16;101218.50;5010791;28;46087;-68
2022/02/06 09:46:49;;;;;;;;;0.75;0.75;;;;;10.48;72.01;101214.00;5008375;28;45518;-65
2022/02/06 09:49:16;;;;;;;;;5.25;0.75;;;;;10.50;72.36;101222.66;5009540;28;45925;-65
2022/02/06 09:51:44;;;;;;;;;5.75;0.25;;;;;10.50;72.46;101222.66;5012352;28;46532;-64
2022/02/06 09:54:12;;;;;;;;;2.25;1.00;;;;;10.53;72.51;101219.91;5007622;28;45506;-66
2022/02/06 09:56:43;;;;;;;;;1.00;1.00;;;;;10.60;72.61;101217.81;5006756;28;45419;-62
2022/02/06 09:59:17;;;;;;;;;1.00;1.00;;;;;10.65;72.40;101215.75;5007068;28;45436;-62
2022/02/06 10:01:46;;;;;;;;;1.00;0.25;;;;;10.68;72.89;101215.63;5012115;28;45571;-66
2022/02/06 10:04:18;;;;;;;;;1.00;1.00;;;;;10.71;72.23;101210.19;5010678;28;45370;-65
2022/02/06 10:07:06;;;;;;;;;1.75;1.00;;;;;10.75;72.46;101217.00;5007222;28;45281;-65
2022/02/06 10:09:45;;;;;;;;;1.00;1.00;;;;;10.80;72.31;101203.56;5008742;28;45372;-63
2022/02/06 10:12:14;;;;;;;;;0.00;0.00;;;;;10.84;72.63;101205.13;5009392;28;45295;-65
2022/02/06 10:14:40;;;;;;;;;0.50;0.00;;;;;10.92;72.68;101202.09;5009511;28;46385;-64
2022/02/06 10:17:06;;;;;;;;;0.00;0.00;;;;;10.96;72.65;101215.00;5005945;28;45529;-65
2022/02/06 10:19:34;;;;;;;;;0.25;0.00;;;;;10.99;72.49;101220.13;5004186;28;45391;-64
2022/02/06 10:22:17;;;;;;;;;0.00;0.00;;;;;11.03;72.44;101208.47;5008021;28;45511;-63
2022/02/06 10:24:44;;;;;;;;;0.00;0.00;;;;;11.07;71.83;101217.09;5018937;28;45645;-64
2022/02/06 10:29:50;;;;;;;;;0.00;0.00;;;;;11.10;72.05;101228.31;5008114;28;45539;-64
2022/02/06 10:32:20;;;;;;;;;1.25;0.00;;;;;11.22;72.34;101210.13;5006636;28;45384;-63
2022/02/06 10:34:46;;;;;;;;;1.00;0.00;;;;;11.33;72.16;101202.47;5008410;28;45477;-63
2022/02/06 10:37:21;;;;;;;;;0.75;0.00;;;;;11.42;71.91;101208.09;5011178;28;45586;-64
2022/02/06 10:40:00;;;;;;;;;0.50;0.00;;;;;11.52;71.83;101204.94;5012566;28;45388;-63
2022/02/06 10:42:28;;;;;;;;;0.00;0.00;;;;;11.61;71.50;101207.94;5010941;28;45539;-64
2022/02/06 10:45:16;;;;;;;;;1.50;1.00;;;;;11.68;71.35;101213.69;5012849;28;46581;-61
2022/02/06 10:47:44;;;;;;;;;0.50;0.50;;;;;11.68;71.18;101189.94;5008049;28;45423;-61
2022/02/06 10:50:13;;;;;;;;;0.00;0.00;;;;;11.66;71.51;101200.59;5008573;28;45504;-61
2022/02/06 10:52:38;;;;;;;;;1.00;1.00;;;;;11.68;71.32;101195.22;5010971;28;45416;-61
2022/02/06 10:55:05;;;;;;;;;2.75;1.00;;;;;11.67;71.61;101181.19;5011864;28;45363;-61
2022/02/06 10:57:31;;;;;;;;;3.50;0.00;;;;;11.69;71.31;101173.19;5011161;28;45437;-61
2022/02/06 10:59:57;;;;;;;;;1.00;1.00;;;;;11.72;71.01;101175.66;5013634;28;45495;-61
2022/02/06 11:02:46;;;;;;;;;0.00;0.00;;;;;11.75;71.01;101139.38;5010872;28;45374;-64
2022/02/06 11:05:19;;;;;;;;;0.00;0.00;;;;;11.81;71.11;101148.75;5010735;28;46252;-62
2022/02/06 11:07:55;;;;;;;;;1.50;0.75;;;;;11.89;70.95;101150.97;5009866;28;45386;-63
2022/02/06 11:10:22;;;;;;;;;2.00;0.25;;;;;11.95;70.82;101143.53;5009681;28;45357;-61
2022/02/06 11:12:53;;;;;;;;;2.75;0.50;;;;;12.05;70.96;101145.63;5009706;28;45509;-59
2022/02/06 11:15:28;;;;;;;;;3.75;2.00;;;;;12.13;70.51;101144.25;5009688;28;46014;-61
2022/02/06 11:18:19;;;;;;;;;4.00;1.00;;;;;12.18;69.98;101136.91;5009512;28;45432;-60
2022/02/06 11:21:04;;;;;;;;;1.00;1.00;;;;;12.25;69.92;101117.09;5008136;28;45262;-58
2022/02/06 11:23:39;;;;;;;;;1.00;1.00;;;;;12.32;69.79;101107.00;5011903;28;45432;-58
2022/02/06 11:26:05;;;;;;;;;0.50;0.00;;;;;12.40;69.61;101109.19;5010330;28;46151;-60
2022/02/06 11:28:31;;;;;;;;;3.00;1.00;;;;;12.41;69.30;101113.53;5008579;28;45448;-61
2022/02/06 11:30:57;;;;;;;;;0.25;0.00;;;;;12.40;69.37;101117.09;5007132;28;45515;-59
2022/02/06 11:33:23;;;;;;;;;0.00;0.00;;;;;12.33;69.07;101124.56;5008512;28;45396;-60
2022/02/06 11:35:57;;;;;;;;;1.00;0.75;;;;;12.28;69.30;101113.44;5012787;28;45498;-59
2022/02/06 11:45:06;;;;;;;;;2.00;0.00;;;;;12.32;69.38;101096.44;5012107;28;45407;-64
2022/02/06 11:47:36;;;;;;;;;1.00;0.00;;;;;12.29;69.18;101084.28;5003987;28;45660;-59
2022/02/06 11:50:09;;;;;;;;;2.00;1.00;;;;;12.29;69.03;101097.47;5010135;28;45505;-61
2022/02/06 11:52:52;;;;;;;;;1.50;0.00;;;;;12.29;69.09;101094.00;5010446;28;45267;-61
2022/02/06 11:55:50;;;;;;;;;1.50;0.00;;;;;12.29;69.24;101089.56;5009699;28;45387;-61
2022/02/06 11:58:27;;;;;;;;;2.75;0.00;;;;;12.30;69.40;101063.97;5009255;28;46476;-60
2022/02/06 12:01:05;;;;;;;;;3.75;1.00;;;;;12.30;69.35;101067.47;5010378;28;45407;-60
2022/02/06 12:03:54;;;;;;;;;0.75;0.25;;;;;12.28;69.51;101076.44;5008124;28;45284;-59
2022/02/06 12:06:30;;;;;;;;;1.00;1.00;;;;;12.24;70.02;101098.69;5007549;28;45596;-61
2022/02/06 12:08:58;;;;;;;;;1.75;0.50;;;;;12.25;70.41;101069.56;5009773;28;46258;-59
2022/02/06 12:11:25;;;;;;;;;2.00;1.00;;;;;12.33;70.46;101081.47;5011210;28;45543;-59
2022/02/06 12:14:28;;;;;;;;;0.00;0.00;;;;;12.36;70.25;101062.78;5010465;28;45299;-69
2022/02/06 12:17:18;;;;;;;;;0.00;0.00;;;;;12.38;70.32;101064.34;5011628;28;45461;-61
2022/02/06 12:20:02;;;;;;;;;0.00;0.00;;;;;12.38;70.20;101060.88;5014217;28;45332;-62
2022/02/06 12:22:30;;;;;;;;;0.00;0.00;;;;;12.40;70.18;101061.63;5010615;28;45336;-62
2022/02/06 12:25:24;;;;;;;;;3.00;0.00;;;;;12.41;70.12;101050.13;5009911;28;45353;-64
2022/02/06 12:27:53;;;;;;;;;0.50;0.50;;;;;12.47;70.20;101055.88;5008552;28;45527;-63
2022/02/06 12:30:28;;;;;;;;;0.75;0.75;;;;;12.60;70.11;101049.81;5008330;28;45591;-63
2022/02/06 12:33:28;;;;;;;;;0.00;0.00;;;;;12.69;70.21;101030.75;5010395;28;45353;-64
2022/02/06 12:38:38;;;;;;;;;0.00;0.00;;;;;12.83;69.57;101033.38;5009915;28;45450;-63
2022/02/06 12:41:22;;;;;;;;;3.00;0.00;;;;;12.79;69.34;101027.41;5011208;28;46791;-63
2022/02/06 12:43:55;;;;;;;;;2.00;0.25;;;;;12.77;69.67;101013.44;5009842;28;45245;-64
2022/02/06 12:46:22;;;;;;;;;1.00;0.75;;;;;12.72;69.65;101034.06;5009638;28;45407;-64
2022/02/06 12:48:48;;;;;;;;;0.00;0.00;;;;;12.69;69.48;101014.88;5007036;28;45338;-60
2022/02/06 12:51:14;;;;;;;;;0.75;0.75;;;;;12.65;69.61;101021.31;5008632;28;45503;-60
2022/02/06 12:53:39;;;;;;;;;1.00;0.25;;;;;12.62;70.37;101016.22;5007585;28;45414;-60
2022/02/06 12:56:05;;;;;;;;;3.00;1.00;;;;;12.58;70.45;101029.63;4998310;28;45365;-60
2022/02/06 12:58:30;;;;;;;;;0.00;0.00;;;;;12.53;70.45;101017.66;5000247;28;45235;-61
2022/02/06 13:00:57;;;;;;;;;1.50;0.00;;;;;12.54;70.43;101008.78;4999852;28;45167;-60
2022/02/06 13:03:35;;;;;;;;;0.00;0.00;;;;;12.49;70.85;101018.81;5000103;28;45397;-61
2022/02/06 13:06:09;;;;;;;;;0.00;0.00;;;;;12.47;70.86;101015.38;5000274;28;45356;-61
2022/02/06 13:08:38;;;;;;;;;0.75;0.75;;;;;12.46;70.76;101025.09;5001202;28;45420;-61
2022/02/06 13:11:15;;;;;;;;;4.00;1.00;;;;;12.47;70.92;101010.94;5017111;28;45179;-61
2022/02/06 13:14:17;;;;;;;;;3.25;2.00;;;;;12.50;71.05;101004.63;5017666;28;45603;-61
2022/02/06 13:17:14;;;;;;;;;3.50;2.00;;;;;12.55;71.15;101026.31;5007745;28;45499;-61
2022/02/06 13:20:02;;;;;;;;;0.50;0.50;;;;;12.54;71.19;101032.56;5004618;28;45413;-61
2022/02/06 13:23:07;;;;;;;;;5.00;2.50;;;;;12.52;71.27;101027.38;5015959;28;46529;-61
2022/02/06 13:30:57;;;;;;;;;9.50;7.75;;;;;12.44;71.86;101029.66;5023332;28;45374;-61
2022/02/06 13:38:39;;;;;;;;;1.25;1.00;;;;;12.38;72.38;101022.09;5023168;28;45326;-61
2022/02/06 13:41:19;;;;;;;;;1.00;1.00;;;;;12.34;72.54;101022.41;5006003;28;45439;-62
2022/02/06 13:43:45;;;;;;;;;2.00;2.00;;;;;12.32;72.45;101009.25;5003281;28;46343;-61
2022/02/06 13:46:17;;;;;;;;;1.75;1.75;;;;;12.32;72.75;101003.97;5003090;28;45311;-61
2022/02/06 13:48:47;;;;;;;;;2.25;2.25;;;;;12.34;72.87;100994.19;5002928;28;45378;-61
2022/02/06 13:51:13;;;;;;;;;8.25;5.00;;;;;12.33;72.82;100997.78;5003209;28;45314;-61
2022/02/06 13:53:39;;;;;;;;;4.00;3.00;;;;;12.34;73.07;100983.63;5003006;28;45581;-61
2022/02/06 13:56:12;;;;;;;;;4.25;4.00;;;;;12.36;73.26;100970.31;5003065;28;45364;-61
2022/02/06 13:58:38;;;;;;;;;0.00;0.00;;;;;12.32;73.19;100940.56;5003112;28;45269;-61
2022/02/06 14:01:06;;;;;;;;;0.25;0.00;;;;;12.26;73.01;100975.31;5002667;28;45403;-61
2022/02/06 14:03:46;;;;;;;;;1.00;1.00;;;;;12.21;73.38;100978.25;5002226;28;45395;-61
2022/02/06 14:06:16;;;;;;;;;0.00;0.00;;;;;12.24;73.28;100971.91;5002972;28;45377;-61
2022/02/06 14:09:00;;;;;;;;;1.50;1.00;;;;;12.25;73.32;100969.19;5002875;28;45305;-61
2022/02/06 14:11:31;;;;;;;;;1.00;1.00;;;;;12.27;73.15;100964.66;5002810;28;45911;-61
2022/02/06 14:14:54;;;;;;;;;0.50;0.00;;;;;12.30;72.97;100934.56;5010986;28;45487;-61
2022/02/06 14:17:25;;;;;;;;;0.00;0.00;;;;;12.32;73.16;100930.00;4991128;28;45399;-61
2022/02/06 14:19:54;;;;;;;;;1.25;1.00;;;;;12.37;72.86;100937.66;4996294;28;45354;-61
2022/02/06 14:22:35;;;;;;;;;0.50;0.50;;;;;12.42;73.21;100923.22;5001902;28;45635;-61
2022/02/06 14:25:09;;;;;;;;;0.00;0.00;;;;;12.47;72.92;100915.81;5011883;28;45443;-61